createdAt,value
2023-04-28T00:00:01.191Z,11.78
2023-04-28T00:02:29.521Z,11.78
2023-04-28T00:04:58.215Z,11.79
2023-04-28T00:07:26.736Z,11.83
2023-04-28T00:09:54.869Z,11.89
2023-04-28T00:12:22.924Z,11.93
2023-04-28T00:14:51.246Z,11.92
2023-04-28T00:17:19.133Z,11.96
2023-04-28T00:19:46.863Z,11.92
2023-04-28T00:22:15.599Z,11.89
2023-04-28T00:24:43.476Z,11.86
2023-04-28T00:27:11.399Z,11.85
2023-04-28T00:29:39.118Z,11.86
2023-04-28T00:32:07.610Z,11.87
2023-04-28T00:34:37.720Z,11.87
2023-04-28T00:37:05.998Z,11.89
2023-04-28T00:39:33.831Z,11.83
2023-04-28T00:42:02.520Z,11.87
2023-04-28T00:44:31.355Z,11.87
2023-04-28T00:47:00.834Z,11.90
2023-04-28T00:49:28.750Z,11.87
2023-04-28T00:51:56.767Z,11.90
2023-04-28T00:54:24.524Z,11.86
2023-04-28T00:56:52.690Z,11.82
2023-04-28T00:59:20.726Z,11.82
2023-04-28T01:01:49.899Z,11.76
2023-04-28T01:04:21.731Z,11.75
2023-04-28T01:06:52.771Z,11.75
2023-04-28T01:09:22.270Z,11.74
2023-04-28T01:11:52.619Z,11.75
2023-04-28T01:14:35.690Z,11.78
2023-04-28T01:17:04.871Z,11.78
2023-04-28T01:19:33.466Z,11.74
2023-04-28T01:22:05.202Z,11.71
2023-04-28T01:24:33.815Z,11.71
2023-04-28T01:27:06.222Z,11.66
2023-04-28T01:29:33.962Z,11.68
2023-04-28T01:32:02.160Z,11.68
2023-04-28T01:34:30.126Z,11.66
2023-04-28T01:36:58.954Z,11.65
2023-04-28T01:39:26.800Z,11.61
2023-04-28T01:41:54.511Z,11.61
2023-04-28T01:44:22.702Z,11.59
2023-04-28T01:46:50.490Z,11.62
2023-04-28T01:49:18.940Z,11.58
2023-04-28T01:51:46.757Z,11.57
2023-04-28T01:54:15.373Z,11.51
2023-04-28T01:56:43.961Z,11.52
2023-04-28T01:59:14.725Z,11.47
2023-04-28T02:01:42.534Z,11.57
2023-04-28T02:04:10.365Z,11.54
2023-04-28T02:06:39.296Z,11.57
2023-04-28T02:09:07.589Z,11.54
2023-04-28T02:11:35.463Z,11.62
2023-04-28T02:14:03.731Z,11.59
2023-04-28T02:16:33.282Z,11.57
2023-04-28T02:19:01.571Z,11.57
2023-04-28T02:21:31.456Z,11.59
2023-04-28T02:23:59.767Z,11.61
2023-04-28T02:26:27.865Z,11.58
2023-04-28T02:28:56.082Z,11.64
2023-04-28T02:31:24.568Z,11.64
2023-04-28T02:33:55.071Z,11.66
2023-04-28T02:36:23.169Z,11.69
2023-04-28T02:38:50.875Z,11.64
2023-04-28T02:41:18.598Z,11.66
2023-04-28T02:43:46.431Z,11.72
2023-04-28T02:46:14.171Z,11.76
2023-04-28T02:48:43.195Z,11.79
2023-04-28T02:51:14.431Z,11.81
2023-04-28T02:53:42.542Z,11.69
2023-04-28T02:56:11.962Z,11.69
2023-04-28T02:58:39.918Z,11.64
2023-04-28T03:01:07.756Z,11.54
2023-04-28T03:03:35.764Z,11.58
2023-04-28T03:06:03.724Z,11.62
2023-04-28T03:08:34.288Z,11.55
2023-04-28T03:11:02.281Z,11.48
2023-04-28T03:13:30.430Z,11.51
2023-04-28T03:15:59.230Z,11.52
2023-04-28T03:18:29.254Z,11.59
2023-04-28T03:20:57.517Z,11.61
2023-04-28T03:23:26.659Z,11.52
2023-04-28T03:25:54.944Z,11.54
2023-04-28T03:28:22.689Z,11.59
2023-04-28T03:30:50.722Z,11.50
2023-04-28T03:33:18.551Z,11.55
2023-04-28T03:35:46.735Z,11.59
2023-04-28T03:38:14.986Z,11.58
2023-04-28T03:40:43.174Z,11.64
2023-04-28T03:43:35.657Z,11.64
2023-04-28T03:46:23.355Z,11.54
2023-04-28T03:48:51.271Z,11.57
2023-04-28T03:51:20.348Z,11.66
2023-04-28T03:53:48.866Z,11.66
2023-04-28T03:56:16.873Z,11.66
2023-04-28T03:58:44.650Z,11.71
2023-04-28T04:01:12.803Z,11.68
2023-04-28T04:03:41.527Z,11.69
2023-04-28T04:06:09.902Z,11.75
2023-04-28T04:08:37.989Z,11.69
2023-04-28T04:11:05.747Z,11.82
2023-04-28T04:13:33.791Z,11.89
2023-04-28T04:16:05.642Z,11.96
2023-04-28T04:18:33.541Z,11.99
2023-04-28T04:21:34.009Z,11.95
2023-04-28T04:24:02.145Z,11.89
2023-04-28T04:26:29.998Z,11.89
2023-04-28T04:28:58.310Z,11.90
2023-04-28T04:31:26.099Z,11.87
2023-04-28T04:33:53.852Z,11.81
2023-04-28T04:36:23.308Z,11.76
2023-04-28T04:38:54.294Z,11.86
2023-04-28T04:41:23.428Z,11.95
2023-04-28T04:43:58.435Z,11.93
2023-04-28T04:46:32.179Z,11.96
2023-04-28T04:48:59.988Z,12.02
2023-04-28T04:51:28.419Z,11.93
2023-04-28T04:53:56.431Z,11.76
2023-04-28T04:56:24.241Z,11.75
2023-04-28T04:58:52.840Z,11.78
2023-04-28T05:01:33.518Z,11.78
2023-04-28T05:04:01.989Z,11.79
2023-04-28T05:06:30.471Z,11.86
2023-04-28T05:08:59.573Z,11.79
2023-04-28T05:11:28.251Z,11.81
2023-04-28T05:13:56.330Z,11.78
2023-04-28T05:16:24.947Z,11.81
2023-04-28T05:19:02.174Z,11.86
2023-04-28T05:21:30.586Z,11.87
2023-04-28T05:23:58.823Z,11.87
2023-04-28T05:26:26.791Z,11.92
2023-04-28T05:28:58.763Z,11.95
2023-04-28T05:31:26.866Z,12.00
2023-04-28T05:33:55.845Z,12.06
2023-04-28T05:36:23.771Z,12.06
2023-04-28T05:38:52.025Z,12.17
2023-04-28T05:41:20.932Z,12.17
2023-04-28T05:43:51.183Z,12.22
2023-04-28T05:46:30.103Z,12.26
2023-04-28T05:49:00.716Z,12.32
2023-04-28T05:51:34.182Z,12.32
2023-04-28T05:54:03.526Z,12.38
2023-04-28T05:56:34.256Z,12.47
2023-04-28T05:59:04.703Z,12.47
2023-04-28T06:01:33.661Z,12.53
2023-04-28T06:04:02.346Z,12.54
2023-04-28T06:06:31.042Z,12.61
2023-04-28T06:09:00.724Z,12.69
2023-04-28T06:11:28.489Z,12.81
2023-04-28T06:13:56.474Z,12.82
2023-04-28T06:16:26.387Z,12.96
2023-04-28T06:18:54.306Z,13.05
2023-04-28T06:21:22.145Z,13.18
2023-04-28T06:23:49.963Z,13.26
2023-04-28T06:26:18.785Z,13.29
2023-04-28T06:28:47.015Z,13.26
2023-04-28T06:31:15.006Z,13.23
2023-04-28T06:33:42.914Z,13.24
2023-04-28T06:36:14.156Z,13.19
2023-04-28T06:38:44.046Z,13.18
2023-04-28T06:41:12.448Z,13.18
2023-04-28T06:43:42.300Z,13.19
2023-04-28T06:46:15.258Z,13.23
2023-04-28T06:48:43.814Z,13.29
2023-04-28T06:51:11.808Z,13.29
2023-04-28T06:53:39.971Z,13.32
2023-04-28T06:56:11.209Z,13.39
2023-04-28T06:58:40.026Z,13.49
2023-04-28T07:01:08.117Z,13.51
2023-04-28T07:03:36.273Z,13.54
2023-04-28T07:06:04.668Z,13.70
2023-04-28T07:08:32.680Z,13.85
2023-04-28T07:11:04.968Z,13.95
2023-04-28T07:13:33.568Z,14.00
2023-04-28T07:16:02.088Z,14.11
2023-04-28T07:18:30.047Z,14.22
2023-04-28T07:20:58.203Z,14.30
2023-04-28T07:23:25.946Z,14.39
2023-04-28T07:25:53.792Z,14.62
2023-04-28T07:28:21.793Z,14.67
2023-04-28T07:30:49.577Z,14.84
2023-04-28T07:33:17.595Z,14.97
2023-04-28T07:35:45.467Z,15.01
2023-04-28T07:38:13.759Z,15.00
2023-04-28T07:40:43.952Z,14.96
2023-04-28T07:43:11.804Z,15.00
2023-04-28T07:45:41.174Z,14.98
2023-04-28T07:48:09.583Z,15.01
2023-04-28T07:50:37.428Z,14.98
2023-04-28T07:53:05.180Z,14.98
2023-04-28T07:55:33.064Z,15.03
2023-04-28T07:58:00.983Z,15.01
2023-04-28T08:00:29.148Z,15.08
2023-04-28T08:02:57.958Z,15.11
2023-04-28T08:05:26.103Z,15.01
2023-04-28T08:07:53.965Z,14.96
2023-04-28T08:10:21.941Z,14.97
2023-04-28T08:12:49.742Z,14.97
2023-04-28T08:15:18.575Z,14.94
2023-04-28T08:17:46.690Z,15.00
2023-04-28T08:20:21.661Z,14.98
2023-04-28T08:22:51.200Z,14.98
2023-04-28T08:25:19.037Z,14.90
2023-04-28T08:27:46.779Z,14.90
2023-04-28T08:30:14.660Z,14.81
2023-04-28T08:32:42.509Z,14.75
2023-04-28T08:35:10.751Z,14.69
2023-04-28T08:37:38.777Z,14.62
2023-04-28T08:40:10.279Z,14.53
2023-04-28T08:42:39.759Z,14.59
2023-04-28T08:45:08.803Z,14.57
2023-04-28T08:47:39.769Z,14.67
2023-04-28T08:50:12.603Z,14.72
2023-04-28T08:52:42.656Z,14.86
2023-04-28T08:55:12.945Z,14.80
2023-04-28T08:57:45.341Z,14.80
2023-04-28T09:00:13.691Z,14.87
2023-04-28T09:02:42.936Z,14.81
2023-04-28T09:05:13.296Z,14.84
2023-04-28T09:07:45.595Z,15.00
2023-04-28T09:10:18.401Z,15.23
2023-04-28T09:12:47.516Z,15.48
2023-04-28T09:15:35.534Z,15.74
2023-04-28T09:18:06.589Z,15.92
2023-04-28T09:20:36.720Z,15.97
2023-04-28T09:23:21.212Z,16.06
2023-04-28T09:26:08.210Z,16.14
2023-04-28T09:28:37.011Z,16.07
2023-04-28T09:31:05.066Z,16.16
2023-04-28T09:33:33.301Z,16.06
2023-04-28T09:36:01.599Z,15.96
2023-04-28T09:38:29.386Z,15.82
2023-04-28T09:41:03.193Z,15.70
2023-04-28T09:43:35.898Z,15.62
2023-04-28T09:46:05.991Z,15.58
2023-04-28T09:48:36.404Z,15.70
2023-04-28T09:51:06.623Z,16.21
2023-04-28T09:53:36.032Z,16.58
2023-04-28T09:56:05.635Z,16.82
2023-04-28T09:58:38.760Z,17.00
2023-04-28T10:01:14.373Z,17.82
2023-04-28T10:03:44.640Z,18.61
2023-04-28T10:06:12.754Z,19.01
2023-04-28T10:08:41.783Z,19.16
2023-04-28T10:11:10.093Z,19.12
2023-04-28T10:13:38.046Z,18.95
2023-04-28T10:16:08.261Z,18.75
2023-04-28T10:18:37.205Z,18.60
2023-04-28T10:21:08.349Z,18.26
2023-04-28T10:23:42.538Z,17.94
2023-04-28T10:26:18.445Z,17.73
2023-04-28T10:28:51.563Z,17.50
2023-04-28T10:31:21.585Z,17.38
2023-04-28T10:33:50.211Z,17.53
2023-04-28T10:36:53.295Z,17.77
2023-04-28T10:39:21.550Z,17.82
2023-04-28T10:41:49.532Z,18.01
2023-04-28T10:44:29.179Z,17.96
2023-04-28T10:47:09.576Z,18.10
2023-04-28T10:49:58.816Z,18.81
2023-04-28T10:52:39.010Z,18.94
2023-04-28T10:55:30.971Z,18.84
2023-04-28T10:58:28.203Z,19.21
2023-04-28T11:01:15.889Z,19.45
2023-04-28T11:03:51.404Z,19.80
2023-04-28T11:06:28.838Z,20.58
2023-04-28T11:09:02.703Z,20.49
2023-04-28T11:11:34.985Z,20.39
2023-04-28T11:14:20.883Z,20.17
2023-04-28T11:16:54.187Z,19.84
2023-04-28T11:19:25.064Z,19.90
2023-04-28T11:21:56.322Z,19.59
2023-04-28T11:24:28.963Z,19.50
2023-04-28T11:27:04.381Z,19.48
2023-04-28T11:29:40.247Z,19.12
2023-04-28T11:32:09.929Z,19.19
2023-04-28T11:34:38.553Z,19.55
2023-04-28T11:37:08.491Z,20.35
2023-04-28T11:39:37.401Z,21.41
2023-04-28T11:42:11.401Z,21.85
2023-04-28T11:44:39.490Z,22.47
2023-04-28T11:47:08.040Z,22.51
2023-04-28T11:49:46.950Z,21.54
2023-04-28T11:52:14.965Z,21.50
2023-04-28T11:54:43.740Z,21.98
2023-04-28T11:57:22.381Z,22.40
2023-04-28T11:59:51.465Z,21.95
2023-04-28T12:02:30.626Z,22.16
2023-04-28T12:05:07.788Z,22.57
2023-04-28T12:07:46.035Z,22.91
2023-04-28T12:10:17.091Z,22.53
2023-04-28T12:12:52.383Z,22.50
2023-04-28T12:15:22.876Z,22.19
2023-04-28T12:17:51.769Z,22.87
2023-04-28T12:20:38.417Z,23.33
2023-04-28T12:23:07.937Z,23.66
2023-04-28T12:25:45.232Z,23.78
2023-04-28T12:28:13.121Z,24.18
2023-04-28T12:30:44.192Z,24.47
2023-04-28T12:33:29.817Z,24.93
2023-04-28T12:35:59.080Z,24.84
2023-04-28T12:38:28.600Z,24.08
2023-04-28T12:40:56.882Z,24.13
2023-04-28T12:43:25.829Z,23.26
2023-04-28T12:45:57.135Z,23.43
2023-04-28T12:48:25.472Z,24.03
2023-04-28T12:50:53.374Z,24.72
2023-04-28T12:53:21.242Z,25.20
2023-04-28T12:55:49.288Z,25.69
2023-04-28T12:58:18.032Z,25.71
2023-04-28T13:00:45.832Z,25.64
2023-04-28T13:03:13.967Z,25.42
2023-04-28T13:05:42.121Z,25.65
2023-04-28T13:08:10.515Z,25.13
2023-04-28T13:10:39.430Z,24.31
2023-04-28T13:13:07.290Z,24.35
2023-04-28T13:15:38.663Z,23.96
2023-04-28T13:18:06.984Z,24.14
2023-04-28T13:20:35.142Z,24.39
2023-04-28T13:23:03.685Z,24.69
2023-04-28T13:25:31.983Z,24.71
2023-04-28T13:27:59.828Z,24.79
2023-04-28T13:30:27.907Z,24.99
2023-04-28T13:32:57.488Z,25.24
2023-04-28T13:35:26.367Z,24.07
2023-04-28T13:38:02.079Z,22.99
2023-04-28T13:40:30.653Z,23.22
2023-04-28T13:42:58.730Z,23.47
2023-04-28T13:45:27.087Z,24.22
2023-04-28T13:47:58.342Z,23.92
2023-04-28T13:50:26.198Z,22.86
2023-04-28T13:52:54.347Z,22.72
2023-04-28T13:55:27.932Z,22.67
2023-04-28T13:57:56.668Z,23.41
2023-04-28T14:00:25.195Z,23.63
2023-04-28T14:02:53.159Z,22.99
2023-04-28T14:05:21.539Z,22.36
2023-04-28T14:07:49.598Z,22.88
2023-04-28T14:10:17.505Z,21.99
2023-04-28T14:12:45.408Z,22.06
2023-04-28T14:15:13.238Z,22.59
2023-04-28T14:17:41.142Z,22.03
2023-04-28T14:20:11.724Z,21.24
2023-04-28T14:22:40.133Z,21.24
2023-04-28T14:25:08.603Z,21.16
2023-04-28T14:27:36.525Z,21.50
2023-04-28T14:30:05.291Z,21.96
2023-04-28T14:32:33.194Z,22.06
2023-04-28T14:35:03.074Z,22.51
2023-04-28T14:37:33.978Z,22.24
2023-04-28T14:40:02.106Z,22.13
2023-04-28T14:42:33.493Z,22.01
2023-04-28T14:45:02.095Z,22.09
2023-04-28T14:47:31.153Z,21.61
2023-04-28T14:50:00.203Z,21.43
2023-04-28T14:52:30.620Z,21.62
2023-04-28T14:54:59.474Z,21.59
2023-04-28T14:57:27.724Z,21.27
2023-04-28T14:59:56.177Z,20.92
2023-04-28T15:02:29.678Z,20.58
2023-04-28T15:04:58.361Z,20.56
2023-04-28T15:07:31.937Z,20.34
2023-04-28T15:10:02.971Z,20.11
2023-04-28T15:12:32.225Z,20.14
2023-04-28T15:15:00.336Z,19.98
2023-04-28T15:17:29.134Z,20.16
2023-04-28T15:19:57.673Z,19.96
2023-04-28T15:22:25.556Z,19.71
2023-04-28T15:24:53.294Z,19.50
2023-04-28T15:27:21.047Z,19.62
2023-04-28T15:29:48.769Z,19.42
2023-04-28T15:32:16.481Z,19.29
2023-04-28T15:34:44.338Z,19.08
2023-04-28T15:37:38.653Z,18.75
2023-04-28T15:40:07.902Z,18.54
2023-04-28T15:42:35.829Z,18.36
2023-04-28T15:45:04.039Z,18.49
2023-04-28T15:47:33.152Z,18.47
2023-04-28T15:50:01.102Z,18.42
2023-04-28T15:52:29.072Z,18.37
2023-04-28T15:54:56.844Z,18.32
2023-04-28T15:57:24.742Z,18.22
2023-04-28T15:59:52.514Z,18.19
2023-04-28T16:02:22.378Z,18.05
2023-04-28T16:04:50.633Z,18.02
2023-04-28T16:07:18.580Z,18.01
2023-04-28T16:09:47.479Z,17.99
2023-04-28T16:12:15.326Z,17.86
2023-04-28T16:14:43.247Z,17.67
2023-04-28T16:17:11.104Z,17.47
2023-04-28T16:19:38.953Z,17.24
2023-04-28T16:22:07.139Z,17.07
2023-04-28T16:24:37.302Z,17.07
2023-04-28T16:27:06.358Z,17.09
2023-04-28T16:29:35.005Z,17.12
2023-04-28T16:32:06.907Z,17.03
2023-04-28T16:34:34.911Z,16.96
2023-04-28T16:37:03.483Z,16.98
2023-04-28T16:39:35.647Z,16.82
2023-04-28T16:42:04.034Z,16.82
2023-04-28T16:44:32.689Z,16.92
2023-04-28T16:47:01.014Z,16.96
2023-04-28T16:49:31.206Z,16.99
2023-04-28T16:52:06.728Z,17.09
2023-04-28T16:54:34.878Z,17.05
2023-04-28T16:57:03.093Z,16.80
2023-04-28T16:59:33.781Z,16.73
2023-04-28T17:02:03.969Z,16.76
2023-04-28T17:04:35.459Z,16.86
2023-04-28T17:07:05.400Z,16.72
2023-04-28T17:09:33.628Z,16.75
2023-04-28T17:12:04.517Z,16.85
2023-04-28T17:14:32.292Z,16.83
2023-04-28T17:17:02.677Z,16.86
2023-04-28T17:19:30.771Z,16.79
2023-04-28T17:21:58.660Z,16.92
2023-04-28T17:24:26.807Z,16.90
2023-04-28T17:26:54.953Z,16.80
2023-04-28T17:29:22.797Z,16.73
2023-04-28T17:31:50.599Z,16.71
2023-04-28T17:34:20.382Z,16.57
2023-04-28T17:36:49.878Z,16.52
2023-04-28T17:39:17.771Z,16.52
2023-04-28T17:41:46.951Z,16.51
2023-04-28T17:44:14.738Z,16.58
2023-04-28T17:46:42.828Z,16.55
2023-04-28T17:49:11.109Z,16.57
2023-04-28T17:51:38.902Z,16.57
2023-04-28T17:54:09.666Z,16.50
2023-04-28T17:56:40.872Z,16.44
2023-04-28T17:59:09.055Z,16.35
2023-04-28T18:01:36.903Z,16.35
2023-04-28T18:04:05.089Z,16.38
2023-04-28T18:06:32.953Z,16.44
2023-04-28T18:09:01.032Z,16.42
2023-04-28T18:11:28.734Z,16.38
2023-04-28T18:13:58.216Z,16.37
2023-04-28T18:16:27.028Z,16.38
2023-04-28T18:18:54.965Z,16.37
2023-04-28T18:21:22.904Z,16.31
2023-04-28T18:23:50.679Z,16.30
2023-04-28T18:26:19.434Z,16.28
2023-04-28T18:28:50.554Z,16.25
2023-04-28T18:31:18.539Z,16.23
2023-04-28T18:33:46.809Z,16.25
2023-04-28T18:36:14.614Z,16.20
2023-04-28T18:38:42.393Z,16.27
2023-04-28T18:41:15.548Z,16.18
2023-04-28T18:43:44.781Z,16.16
2023-04-28T18:46:12.891Z,16.16
2023-04-28T18:48:40.896Z,16.16
2023-04-28T18:51:08.787Z,16.18
2023-04-28T18:53:37.306Z,16.18
2023-04-28T18:56:05.231Z,16.11
2023-04-28T18:58:33.394Z,15.99
2023-04-28T19:01:01.538Z,16.04
2023-04-28T19:03:30.748Z,16.00
2023-04-28T19:05:58.769Z,16.00
2023-04-28T19:08:26.672Z,16.02
2023-04-28T19:10:54.570Z,15.82
2023-04-28T19:13:25.142Z,15.74
2023-04-28T19:15:54.517Z,15.66
2023-04-28T19:18:23.044Z,15.70
2023-04-28T19:20:52.257Z,15.63
2023-04-28T19:23:21.226Z,15.66
2023-04-28T19:25:48.997Z,15.65
2023-04-28T19:28:17.632Z,15.55
2023-04-28T19:30:45.530Z,15.44
2023-04-28T19:33:13.332Z,15.31
2023-04-28T19:35:41.271Z,15.30
2023-04-28T19:38:09.844Z,15.31
2023-04-28T19:40:38.164Z,15.20
2023-04-28T19:43:06.299Z,15.20
2023-04-28T19:45:35.139Z,15.21
2023-04-28T19:48:07.022Z,15.04
2023-04-28T19:50:36.448Z,15.03
2023-04-28T19:53:04.281Z,15.00
2023-04-28T19:55:32.558Z,14.98
2023-04-28T19:58:01.378Z,15.00
2023-04-28T20:00:32.166Z,14.90
2023-04-28T20:03:02.777Z,14.87
2023-04-28T20:05:31.296Z,14.77
2023-04-28T20:07:59.109Z,14.77
2023-04-28T20:10:26.950Z,14.75
2023-04-28T20:12:55.196Z,14.63
2023-04-28T20:15:22.901Z,14.57
2023-04-28T20:17:51.135Z,14.56
2023-04-28T20:20:19.013Z,14.56
2023-04-28T20:22:48.924Z,14.55
2023-04-28T20:25:17.839Z,14.59
2023-04-28T20:27:47.014Z,14.62
2023-04-28T20:30:14.759Z,14.49
2023-04-28T20:32:42.677Z,14.21
2023-04-28T20:35:10.647Z,14.26
2023-04-28T20:37:38.792Z,14.15
2023-04-28T20:40:07.787Z,13.95
2023-04-28T20:42:36.000Z,13.91
2023-04-28T20:45:04.711Z,13.85
2023-04-28T20:47:33.250Z,13.90
2023-04-28T20:50:01.080Z,13.97
2023-04-28T20:52:28.958Z,13.95
2023-04-28T20:54:57.068Z,13.85
2023-04-28T20:57:24.833Z,13.84
2023-04-28T20:59:52.821Z,13.80
2023-04-28T21:02:21.243Z,13.80
2023-04-28T21:04:49.267Z,13.80
2023-04-28T21:07:17.158Z,13.74
2023-04-28T21:09:44.932Z,13.78
2023-04-28T21:12:12.812Z,13.75
2023-04-28T21:14:40.914Z,13.67
2023-04-28T21:17:09.432Z,13.67
2023-04-28T21:19:37.266Z,13.64
2023-04-28T21:22:05.296Z,13.68
2023-04-28T21:24:33.468Z,13.67
2023-04-28T21:27:05.173Z,13.68
2023-04-28T21:29:34.770Z,13.68
2023-04-28T21:32:02.984Z,13.67
2023-04-28T21:34:31.160Z,13.59
2023-04-28T21:36:59.379Z,13.56
2023-04-28T21:39:27.229Z,13.49
2023-04-28T21:41:55.216Z,13.50
2023-04-28T21:44:23.245Z,13.56
2023-04-28T21:46:51.187Z,13.53
2023-04-28T21:49:19.287Z,13.54
2023-04-28T21:51:47.355Z,13.51
2023-04-28T21:54:15.302Z,13.59
2023-04-28T21:56:43.241Z,13.57
2023-04-28T21:59:11.040Z,13.54
2023-04-28T22:01:39.109Z,13.50
2023-04-28T22:04:08.928Z,13.46
2023-04-28T22:06:37.012Z,13.44
2023-04-28T22:09:07.142Z,13.40
2023-04-28T22:11:35.135Z,13.38
2023-04-28T22:14:05.943Z,13.35
2023-04-28T22:16:33.757Z,13.33
2023-04-28T22:19:04.187Z,13.40
2023-04-28T22:21:32.676Z,13.32
2023-04-28T22:24:02.753Z,13.32
2023-04-28T22:26:30.696Z,13.26
2023-04-28T22:28:58.675Z,13.15
2023-04-28T22:31:26.467Z,13.16
2023-04-28T22:33:54.308Z,13.22
2023-04-28T22:36:22.134Z,13.12
2023-04-28T22:38:50.043Z,13.01
2023-04-28T22:41:17.813Z,13.01
2023-04-28T22:43:45.674Z,13.02
2023-04-28T22:46:13.494Z,12.99
2023-04-28T22:48:41.247Z,13.02
2023-04-28T22:51:09.627Z,13.11
2023-04-28T22:53:37.367Z,13.12
2023-04-28T22:56:05.285Z,13.06
2023-04-28T22:58:33.163Z,12.93
2023-04-28T23:01:05.061Z,13.01
2023-04-28T23:03:34.123Z,13.01
2023-04-28T23:06:02.538Z,12.95
2023-04-28T23:08:30.649Z,12.88
2023-04-28T23:10:58.795Z,12.91
2023-04-28T23:13:26.798Z,12.84
2023-04-28T23:15:57.873Z,12.81
2023-04-28T23:18:25.948Z,12.77
2023-04-28T23:20:54.133Z,12.72
2023-04-28T23:23:22.134Z,12.69
2023-04-28T23:25:51.131Z,12.69
2023-04-28T23:28:19.142Z,12.57
2023-04-28T23:30:49.040Z,12.58
2023-04-28T23:33:16.830Z,12.54
2023-04-28T23:35:44.693Z,12.57
2023-04-28T23:38:12.726Z,12.57
2023-04-28T23:40:41.465Z,12.64
2023-04-28T23:43:09.369Z,12.61
2023-04-28T23:45:37.176Z,12.60
2023-04-28T23:48:05.635Z,12.64
2023-04-28T23:50:33.515Z,12.55
2023-04-28T23:53:01.664Z,12.58
2023-04-28T23:55:29.464Z,12.68
2023-04-28T23:57:57.393Z,12.65
